Aeroporto :
LOGIN :

Iscrizione | Disclaimer

   EN    FR    IT 

 










Sommario :    VFR   VFR Marginale   IFR   IFR Intensivo   IFR Molto Intensivo
Visibilità : 
Base nubi : 
>= 8 km
>= 3000ft
5 / 8 km
1000 / 3000 ft
1500m / 5 km
500 / 1000 ft
800 / 1500m
200 / 500 ft
< 800m
< 200 ft
Simboli :   Temporali  Nebbia  Neve Forte  Precipitazioni Forti  Vento > 20 kt
SIGMETs :   Varie  Temporali  Ghiacco  Turbolenza  Onda orograficha  Ceneri Vulcaniche







- Altitudine del aeroporto : 266 ft
- Codice IATA : NCL
- Carte del aeroporto


EGNT - Newcastle

ULTIMO METAR :
  • 231920Z VRB01KT 9999 FEW028 18/14 Q1020

METARs OBSOLETI :
  • 231850Z 26002KT 9999 FEW028 19/15 Q1020
  • 231820Z 25005KT 9999 FEW028 19/14 Q1020
  • 231750Z 23005KT 190V260 9999 FEW028 21/15 Q1020
  • 231720Z 23007KT 190V260 9999 FEW028 21/15 Q1020
  • 231650Z 23006KT 190V260 9999 FEW028 21/15 Q1021

TAF TAF EGNT
Valido dal 23 a 18 ore il 24 a 18 ore UTC


231657Z 2318/2418 22011KT 9999 SCT025
BECMG 2318/2321 VRB03KT
PROB40 2321/2409 7000
BECMG 2409/2412 17010KT
ATIS : +44 191 214 3400
Nessun NOTAM noto per questo aeroporto.



MetMap, La meteo Aeronautica in un colpo d'occhio ! - Copyright ORBIFLY Dicembre 2007 - Disclaimer

ORBIFLY MET'MAP TEAM :

Programmazione e sviluppo : Alexandra Zaïnal
Concezione e sviluppo : Baudouin d'Aumeries
Co-Programmazione e sviluppo : Marc-Olivier Méhu
Supporto tecnico e logistico : Manuel Goepfert
Aiuto per la traduzione : Arnaldo La Scala

Contatto : metmap@orbifly.com




FONTI E CREDITI :

   NOAA